Time;durP1;ratioP1;P1;durP2;ratioP2;P2;SDS_P1;SDS_P2;PMS_P1;PMS_P2;Temp;Humidity;BMP_temperature;BMP_pressure;BME280_temperature;BME280_humidity;BME280_pressure;Samples;Min_cycle;Max_cycle;Signal;HPM_P1;HPM_P2
2022/03/31 00:01:03;;;;;;;80.27;63.17;;;;;;;;;;5012871;28;20412;-62
2022/03/31 00:03:29;;;;;;;85.78;64.15;;;;;;;;;;5012697;28;20947;-62
2022/03/31 00:05:55;;;;;;;80.35;63.15;;;;;;;;;;4995089;28;20315;-62
2022/03/31 00:08:21;;;;;;;84.73;63.97;;;;;;;;;;5012981;28;20260;-62
2022/03/31 00:10:48;;;;;;;80.70;64.18;;;;;;;;;;5012594;28;20452;-62
2022/03/31 00:13:16;;;;;;;66.60;59.50;;;;;;;;;;5012732;28;20201;-62
2022/03/31 00:15:42;;;;;;;74.18;60.45;;;;;;;;;;5012853;28;20176;-62
2022/03/31 00:18:09;;;;;;;80.60;62.35;;;;;;;;;;5012682;28;20177;-63
2022/03/31 00:20:35;;;;;;;76.70;62.13;;;;;;;;;;5012490;28;20189;-65
2022/03/31 00:23:01;;;;;;;83.07;64.22;;;;;;;;;;5012621;28;20197;-62
2022/03/31 00:25:27;;;;;;;81.82;63.05;;;;;;;;;;5012563;28;20184;-62
2022/03/31 00:27:56;;;;;;;75.67;62.50;;;;;;;;;;5012826;28;20261;-63
2022/03/31 00:30:21;;;;;;;81.90;67.20;;;;;;;;;;5012184;28;20448;-63
2022/03/31 00:32:47;;;;;;;79.67;64.20;;;;;;;;;;5012385;28;20190;-63
2022/03/31 00:35:14;;;;;;;65.87;57.90;;;;;;;;;;5012444;28;20427;-63
2022/03/31 00:37:41;;;;;;;71.35;60.25;;;;;;;;;;5012444;28;20412;-62
2022/03/31 00:40:08;;;;;;;72.22;60.65;;;;;;;;;;5012018;28;20239;-62
2022/03/31 00:42:40;;;;;;;70.75;58.92;;;;;;;;;;5012458;28;20215;-62
2022/03/31 00:45:11;;;;;;;74.82;62.83;;;;;;;;;;5012328;28;20177;-63
2022/03/31 00:47:37;;;;;;;76.75;60.67;;;;;;;;;;5012362;28;20185;-62
2022/03/31 00:50:03;;;;;;;79.13;61.17;;;;;;;;;;5011963;28;20192;-62
2022/03/31 00:52:29;;;;;;;75.60;60.58;;;;;;;;;;5011827;28;20494;-62
2022/03/31 00:54:55;;;;;;;79.87;62.73;;;;;;;;;;5012653;28;20614;-63
2022/03/31 00:57:21;;;;;;;74.35;60.30;;;;;;;;;;5012031;28;20409;-63
2022/03/31 00:59:47;;;;;;;73.72;58.22;;;;;;;;;;5012093;28;20173;-62
2022/03/31 01:02:14;;;;;;;69.65;59.63;;;;;;;;;;5011732;28;20186;-63
2022/03/31 01:04:40;;;;;;;71.50;58.75;;;;;;;;;;5012018;28;20176;-63
2022/03/31 01:07:06;;;;;;;71.97;59.00;;;;;;;;;;5011904;28;20285;-63
2022/03/31 01:09:32;;;;;;;75.40;63.53;;;;;;;;;;5011944;28;20213;-62
2022/03/31 01:12:00;;;;;;;74.82;59.25;;;;;;;;;;5011572;28;20455;-63
2022/03/31 01:14:26;;;;;;;76.70;60.88;;;;;;;;;;5011835;28;20534;-62
2022/03/31 01:16:52;;;;;;;67.00;57.90;;;;;;;;;;5011905;28;20234;-63
2022/03/31 01:19:18;;;;;;;70.63;59.72;;;;;;;;;;5011050;28;20412;-62
2022/03/31 01:21:46;;;;;;;77.37;61.77;;;;;;;;;;5011520;28;20173;-63
2022/03/31 01:24:17;;;;;;;69.88;57.55;;;;;;;;;;5011697;28;20431;-62
2022/03/31 01:26:43;;;;;;;77.78;59.60;;;;;;;;;;5011936;28;20320;-62
2022/03/31 01:29:09;;;;;;;74.57;61.85;;;;;;;;;;4993623;28;20177;-63
2022/03/31 01:31:37;;;;;;;70.10;60.13;;;;;;;;;;5011434;28;20208;-63
2022/03/31 01:34:04;;;;;;;74.70;59.67;;;;;;;;;;5011632;28;20195;-63
2022/03/31 01:36:30;;;;;;;72.07;60.08;;;;;;;;;;5011598;28;20174;-63
2022/03/31 01:38:55;;;;;;;64.20;56.77;;;;;;;;;;5011630;28;20232;-62
2022/03/31 01:41:22;;;;;;;68.33;58.50;;;;;;;;;;5011321;28;20412;-63
2022/03/31 01:43:48;;;;;;;71.75;60.15;;;;;;;;;;5011499;28;20471;-63
2022/03/31 01:46:14;;;;;;;67.95;57.78;;;;;;;;;;5011591;28;20185;-62
2022/03/31 01:48:40;;;;;;;63.57;57.17;;;;;;;;;;5011561;28;20228;-62
2022/03/31 01:51:07;;;;;;;67.78;57.30;;;;;;;;;;5011121;28;20455;-62
2022/03/31 01:53:34;;;;;;;68.93;57.70;;;;;;;;;;5011527;28;20202;-62
2022/03/31 01:56:00;;;;;;;76.35;59.83;;;;;;;;;;5011419;28;20182;-62
2022/03/31 01:58:26;;;;;;;58.37;52.37;;;;;;;;;;5011537;28;20638;-63
2022/03/31 02:00:52;;;;;;;71.30;58.97;;;;;;;;;;5011196;28;20896;-62
2022/03/31 02:03:18;;;;;;;77.43;59.00;;;;;;;;;;5012338;28;20533;-62
2022/03/31 02:05:44;;;;;;;75.35;59.17;;;;;;;;;;5011306;28;20420;-62
2022/03/31 02:08:10;;;;;;;73.57;58.97;;;;;;;;;;5011463;28;20181;-62
2022/03/31 02:10:36;;;;;;;80.77;59.20;;;;;;;;;;4993398;28;20466;-62
2022/03/31 02:13:02;;;;;;;76.17;58.07;;;;;;;;;;5011301;28;20417;-62
2022/03/31 02:15:32;;;;;;;79.18;58.97;;;;;;;;;;5011502;28;20907;-62
2022/03/31 02:17:59;;;;;;;73.05;60.15;;;;;;;;;;5011273;28;20544;-62
2022/03/31 02:20:27;;;;;;;78.22;60.35;;;;;;;;;;5010988;28;20183;-62
2022/03/31 02:22:53;;;;;;;76.15;58.08;;;;;;;;;;5011173;28;20212;-62
2022/03/31 02:25:19;;;;;;;76.07;58.80;;;;;;;;;;5011309;28;20239;-62
2022/03/31 02:27:45;;;;;;;78.28;59.90;;;;;;;;;;5011179;28;20181;-62
2022/03/31 02:30:11;;;;;;;77.10;61.63;;;;;;;;;;5012726;28;20263;-62
2022/03/31 02:32:37;;;;;;;76.50;55.70;;;;;;;;;;5014661;28;20425;-62
2022/03/31 02:35:04;;;;;;;77.88;58.45;;;;;;;;;;5014615;28;20186;-63
2022/03/31 02:37:30;;;;;;;73.38;57.58;;;;;;;;;;5014453;28;20307;-62
2022/03/31 02:39:56;;;;;;;75.40;55.57;;;;;;;;;;5014511;28;20226;-63
2022/03/31 02:42:22;;;;;;;75.07;57.53;;;;;;;;;;5014389;28;20426;-62
2022/03/31 02:44:48;;;;;;;76.85;57.08;;;;;;;;;;5014469;28;20410;-62
2022/03/31 02:47:14;;;;;;;72.25;53.15;;;;;;;;;;5014422;28;20627;-63
2022/03/31 02:49:40;;;;;;;72.87;55.40;;;;;;;;;;5014345;28;20169;-62
2022/03/31 02:52:07;;;;;;;69.70;55.85;;;;;;;;;;5013790;28;20459;-62
2022/03/31 02:57:18;;;;;;;69.82;55.30;;;;;;;;;;5014354;28;20226;-62
2022/03/31 02:59:45;;;;;;;71.20;56.03;;;;;;;;;;5014168;28;20220;-62
2022/03/31 03:02:11;;;;;;;79.32;57.88;;;;;;;;;;5013776;28;20184;-62
2022/03/31 03:04:37;;;;;;;72.57;56.30;;;;;;;;;;5014053;28;20185;-62
2022/03/31 03:07:03;;;;;;;78.65;59.55;;;;;;;;;;5014241;28;20552;-62
2022/03/31 03:09:29;;;;;;;73.10;55.90;;;;;;;;;;5013992;28;20169;-62
2022/03/31 03:11:55;;;;;;;77.63;57.05;;;;;;;;;;5013672;28;20668;-62
2022/03/31 03:14:21;;;;;;;68.00;54.50;;;;;;;;;;5013822;28;20197;-62
2022/03/31 03:16:47;;;;;;;73.40;55.63;;;;;;;;;;5013890;28;20182;-62
2022/03/31 03:19:13;;;;;;;64.77;53.47;;;;;;;;;;5013300;28;20231;-63
2022/03/31 03:21:39;;;;;;;64.97;54.40;;;;;;;;;;5013556;28;20749;-62
2022/03/31 03:24:05;;;;;;;64.22;56.13;;;;;;;;;;5013649;28;20514;-62
2022/03/31 03:26:31;;;;;;;62.70;51.67;;;;;;;;;;5013747;28;20225;-62
2022/03/31 03:28:57;;;;;;;54.13;48.70;;;;;;;;;;5013517;28;20278;-62
2022/03/31 03:31:23;;;;;;;51.10;46.43;;;;;;;;;;5013311;28;20252;-62
2022/03/31 03:33:49;;;;;;;50.10;45.50;;;;;;;;;;5013430;28;20419;-62
2022/03/31 03:36:19;;;;;;;45.70;41.88;;;;;;;;;;5013541;28;20214;-63
2022/03/31 03:38:45;;;;;;;51.10;46.47;;;;;;;;;;5013453;28;20173;-63
2022/03/31 03:41:11;;;;;;;50.10;45.63;;;;;;;;;;5012669;28;20188;-63
2022/03/31 03:43:38;;;;;;;49.30;44.92;;;;;;;;;;5013337;28;20698;-63
2022/03/31 03:46:04;;;;;;;49.65;45.33;;;;;;;;;;5013293;28;20212;-62
2022/03/31 03:48:30;;;;;;;53.08;48.15;;;;;;;;;;5013288;28;20232;-62
2022/03/31 03:50:56;;;;;;;47.95;43.75;;;;;;;;;;5012999;28;20196;-62
2022/03/31 03:53:22;;;;;;;48.88;44.50;;;;;;;;;;5013110;28;20197;-62
2022/03/31 03:55:48;;;;;;;50.65;45.72;;;;;;;;;;5013322;28;20227;-63
2022/03/31 03:58:14;;;;;;;49.40;44.90;;;;;;;;;;5013058;28;20177;-63
2022/03/31 04:00:40;;;;;;;47.42;43.15;;;;;;;;;;5012945;28;20206;-63
2022/03/31 04:03:07;;;;;;;55.15;49.85;;;;;;;;;;5012750;28;20221;-63
2022/03/31 04:05:33;;;;;;;51.70;46.83;;;;;;;;;;5013013;28;20189;-63
2022/03/31 04:07:59;;;;;;;51.40;46.55;;;;;;;;;;5012901;28;20185;-63
2022/03/31 04:10:25;;;;;;;57.28;51.90;;;;;;;;;;5012546;28;20208;-63
2022/03/31 04:12:51;;;;;;;52.00;47.00;;;;;;;;;;5012803;28;20719;-63
2022/03/31 04:15:17;;;;;;;49.40;44.60;;;;;;;;;;5012803;28;20407;-63
2022/03/31 04:17:43;;;;;;;47.58;43.47;;;;;;;;;;5012855;28;20407;-63
2022/03/31 04:20:10;;;;;;;50.72;45.95;;;;;;;;;;5012457;28;20197;-62
2022/03/31 04:22:37;;;;;;;52.97;47.97;;;;;;;;;;5012775;28;20210;-63
2022/03/31 04:25:04;;;;;;;48.45;43.95;;;;;;;;;;5012677;28;20176;-62
2022/03/31 04:27:30;;;;;;;49.70;45.17;;;;;;;;;;5012666;28;20180;-63
2022/03/31 04:29:56;;;;;;;51.90;46.90;;;;;;;;;;5012466;28;20660;-63
2022/03/31 04:32:21;;;;;;;52.53;47.42;;;;;;;;;;5012305;28;20403;-63
2022/03/31 04:34:47;;;;;;;50.80;45.70;;;;;;;;;;5012592;28;20231;-63
2022/03/31 04:37:13;;;;;;;52.53;47.30;;;;;;;;;;5012414;28;20440;-63
2022/03/31 04:39:39;;;;;;;47.60;43.10;;;;;;;;;;5012283;28;20422;-63
2022/03/31 04:42:06;;;;;;;54.20;48.70;;;;;;;;;;5012138;28;20907;-63
2022/03/31 04:44:32;;;;;;;53.05;47.65;;;;;;;;;;5012328;28;20768;-63
2022/03/31 04:46:58;;;;;;;54.97;49.30;;;;;;;;;;5012262;28;20242;-63
2022/03/31 04:49:24;;;;;;;50.97;45.83;;;;;;;;;;5012270;28;20450;-63
2022/03/31 04:51:50;;;;;;;54.67;48.97;;;;;;;;;;5011915;28;20473;-63
2022/03/31 04:54:15;;;;;;;55.40;49.43;;;;;;;;;;5011263;28;20437;-63
2022/03/31 04:56:41;;;;;;;68.90;52.83;;;;;;;;;;5012199;28;20408;-63
2022/03/31 04:59:07;;;;;;;65.33;53.60;;;;;;;;;;5012091;28;20473;-63
2022/03/31 05:01:34;;;;;;;71.80;56.00;;;;;;;;;;5011763;28;20423;-62
2022/03/31 05:04:00;;;;;;;67.60;52.67;;;;;;;;;;5011920;28;20459;-62
2022/03/31 05:06:26;;;;;;;52.27;46.97;;;;;;;;;;5012079;28;20178;-63
2022/03/31 05:08:52;;;;;;;47.10;42.80;;;;;;;;;;5012245;28;20444;-62
2022/03/31 05:11:18;;;;;;;48.42;43.92;;;;;;;;;;5011681;28;20521;-63
2022/03/31 05:13:44;;;;;;;52.50;47.10;;;;;;;;;;5011830;28;20197;-63
2022/03/31 05:16:10;;;;;;;52.97;47.57;;;;;;;;;;5011845;28;20645;-63
2022/03/31 05:18:36;;;;;;;55.57;49.77;;;;;;;;;;5006056;28;20428;-63
2022/03/31 05:21:01;;;;;;;60.27;53.30;;;;;;;;;;5011567;28;20401;-63
2022/03/31 05:23:28;;;;;;;58.23;50.67;;;;;;;;;;5011659;28;20486;-63
2022/03/31 05:25:54;;;;;;;62.38;52.92;;;;;;;;;;5011714;28;20493;-63
2022/03/31 05:28:19;;;;;;;62.07;51.13;;;;;;;;;;5011774;28;20260;-63
2022/03/31 05:30:45;;;;;;;68.30;53.67;;;;;;;;;;5011362;28;20973;-63
2022/03/31 05:33:11;;;;;;;64.73;51.80;;;;;;;;;;5011637;28;20435;-63
2022/03/31 05:35:38;;;;;;;66.73;55.00;;;;;;;;;;5011640;28;20426;-63
2022/03/31 05:38:04;;;;;;;59.55;49.92;;;;;;;;;;5011486;28;20417;-64
2022/03/31 05:40:30;;;;;;;60.28;51.50;;;;;;;;;;5011404;28;20183;-63
2022/03/31 05:42:56;;;;;;;67.87;52.70;;;;;;;;;;5011555;28;20198;-62
2022/03/31 05:45:22;;;;;;;62.15;50.22;;;;;;;;;;5011609;28;20491;-62
2022/03/31 05:47:48;;;;;;;63.03;53.33;;;;;;;;;;5011187;28;20680;-62
2022/03/31 05:50:15;;;;;;;64.05;55.10;;;;;;;;;;5010977;28;20178;-63
2022/03/31 05:52:44;;;;;;;62.67;52.00;;;;;;;;;;5011264;28;20200;-63
2022/03/31 05:55:12;;;;;;;62.75;52.83;;;;;;;;;;5011526;28;20239;-63
2022/03/31 05:57:38;;;;;;;70.68;54.70;;;;;;;;;;5011495;28;20229;-62
2022/03/31 06:00:06;;;;;;;67.07;54.17;;;;;;;;;;5011399;28;20227;-62
2022/03/31 06:02:32;;;;;;;64.50;52.35;;;;;;;;;;5011236;28;20208;-63
2022/03/31 06:04:58;;;;;;;69.40;53.03;;;;;;;;;;5013051;28;20253;-63
2022/03/31 06:07:24;;;;;;;63.30;51.27;;;;;;;;;;5015118;28;20447;-62
2022/03/31 06:09:50;;;;;;;67.53;52.20;;;;;;;;;;5015079;28;20422;-62
2022/03/31 06:12:17;;;;;;;69.53;52.97;;;;;;;;;;5014792;28;20837;-62
2022/03/31 06:14:43;;;;;;;78.40;54.70;;;;;;;;;;5015045;28;20185;-63
2022/03/31 06:17:09;;;;;;;78.67;56.40;;;;;;;;;;5014922;28;20548;-62
2022/03/31 06:19:35;;;;;;;76.35;54.10;;;;;;;;;;5014947;28;20433;-63
2022/03/31 06:22:02;;;;;;;73.38;52.05;;;;;;;;;;5014510;28;20211;-62
2022/03/31 06:24:28;;;;;;;71.15;51.70;;;;;;;;;;5014894;28;20185;-62
2022/03/31 06:26:56;;;;;;;78.87;55.20;;;;;;;;;;5014887;28;20712;-63
2022/03/31 06:29:22;;;;;;;68.20;52.53;;;;;;;;;;5014684;28;20412;-63
2022/03/31 06:31:49;;;;;;;79.80;55.47;;;;;;;;;;5014436;28;20191;-63
2022/03/31 06:34:15;;;;;;;79.20;56.28;;;;;;;;;;5014485;28;20196;-63
2022/03/31 06:36:41;;;;;;;73.53;53.27;;;;;;;;;;5014622;28;20180;-63
2022/03/31 06:39:07;;;;;;;82.07;54.50;;;;;;;;;;5014503;28;20502;-63
2022/03/31 06:41:33;;;;;;;83.07;56.10;;;;;;;;;;5014159;28;20478;-63
2022/03/31 06:43:59;;;;;;;81.38;55.25;;;;;;;;;;5014286;28;20427;-63
2022/03/31 06:46:25;;;;;;;60.67;50.75;;;;;;;;;;5013651;28;20176;-63
2022/03/31 06:48:51;;;;;;;63.00;50.90;;;;;;;;;;5014086;28;20184;-63
2022/03/31 06:51:17;;;;;;;59.43;49.43;;;;;;;;;;5013973;28;20234;-63
2022/03/31 06:53:44;;;;;;;68.50;52.63;;;;;;;;;;5014415;28;20862;-63
2022/03/31 06:56:11;;;;;;;70.30;55.00;;;;;;;;;;5014415;28;20557;-62
2022/03/31 06:58:37;;;;;;;72.07;55.33;;;;;;;;;;5013834;28;20327;-62
2022/03/31 07:01:06;;;;;;;65.18;53.88;;;;;;;;;;5013914;28;20212;-62
2022/03/31 07:03:32;;;;;;;88.82;56.70;;;;;;;;;;5013809;28;20204;-62
2022/03/31 07:05:58;;;;;;;83.82;57.90;;;;;;;;;;4996498;28;20176;-62
2022/03/31 07:08:25;;;;;;;77.27;57.07;;;;;;;;;;5013912;28;20663;-62
2022/03/31 07:10:51;;;;;;;78.60;55.53;;;;;;;;;;5013706;28;20408;-62
2022/03/31 07:13:18;;;;;;;83.40;56.10;;;;;;;;;;5013783;28;20199;-62
2022/03/31 07:15:44;;;;;;;77.45;56.88;;;;;;;;;;5012900;28;20407;-64
2022/03/31 07:18:10;;;;;;;84.85;59.70;;;;;;;;;;5013337;28;20182;-63
2022/03/31 07:20:37;;;;;;;82.00;59.38;;;;;;;;;;5012543;28;20618;-63
2022/03/31 07:23:02;;;;;;;81.50;58.58;;;;;;;;;;5011725;28;20750;-63
2022/03/31 07:25:28;;;;;;;81.93;58.37;;;;;;;;;;5013090;28;20192;-63
2022/03/31 07:27:55;;;;;;;85.30;61.67;;;;;;;;;;5013436;28;20412;-63
2022/03/31 07:30:22;;;;;;;87.95;64.63;;;;;;;;;;5013295;28;20655;-62
2022/03/31 07:32:49;;;;;;;79.70;59.78;;;;;;;;;;5013307;28;20205;-63
2022/03/31 07:35:15;;;;;;;85.68;62.72;;;;;;;;;;5013421;28;20177;-63
2022/03/31 07:37:41;;;;;;;84.68;63.10;;;;;;;;;;5013816;28;20193;-63
2022/03/31 07:40:07;;;;;;;86.47;63.25;;;;;;;;;;5013097;28;20656;-61
2022/03/31 07:42:33;;;;;;;87.43;62.05;;;;;;;;;;5013160;28;20196;-63
2022/03/31 07:44:59;;;;;;;81.27;60.17;;;;;;;;;;5013374;28;20176;-62
2022/03/31 07:47:25;;;;;;;82.97;63.37;;;;;;;;;;5012822;28;20514;-63
2022/03/31 07:49:52;;;;;;;83.67;60.37;;;;;;;;;;5012215;28;20888;-60
2022/03/31 07:52:21;;;;;;;88.18;64.32;;;;;;;;;;5011648;28;20765;-63
2022/03/31 07:54:47;;;;;;;87.60;64.82;;;;;;;;;;5009258;28;20166;-63
2022/03/31 07:57:13;;;;;;;85.78;63.88;;;;;;;;;;5011607;28;20730;-62
2022/03/31 07:59:39;;;;;;;87.53;66.20;;;;;;;;;;5018708;28;20212;-63
2022/03/31 08:02:06;;;;;;;85.00;63.03;;;;;;;;;;5011319;28;20939;-63
2022/03/31 08:04:32;;;;;;;100.72;90.22;;;;;;;;;;5036661;22;21147;-61
2022/03/31 08:06:59;;;;;;;92.05;67.80;;;;;;;;;;5032362;28;20266;-59
2022/03/31 08:09:25;;;;;;;88.53;65.05;;;;;;;;;;5032299;28;20532;-60
2022/03/31 08:11:51;;;;;;;89.37;64.10;;;;;;;;;;5032388;28;20176;-60
2022/03/31 08:14:19;;;;;;;82.35;63.92;;;;;;;;;;5027225;28;20427;-62
2022/03/31 08:16:46;;;;;;;90.97;65.70;;;;;;;;;;5011139;28;20194;-62
2022/03/31 08:19:12;;;;;;;92.43;65.45;;;;;;;;;;5011075;28;20552;-62
2022/03/31 08:21:38;;;;;;;93.32;65.93;;;;;;;;;;5010864;28;20205;-60
2022/03/31 08:24:05;;;;;;;84.85;64.13;;;;;;;;;;5011187;28;20169;-62
2022/03/31 08:26:31;;;;;;;87.28;62.95;;;;;;;;;;5010955;28;20233;-62
2022/03/31 08:28:57;;;;;;;88.33;66.90;;;;;;;;;;5010825;28;20208;-61
2022/03/31 08:31:22;;;;;;;93.00;68.57;;;;;;;;;;5010998;28;20409;-62
2022/03/31 08:33:48;;;;;;;95.27;68.37;;;;;;;;;;5011363;28;20419;-58
2022/03/31 08:36:14;;;;;;;88.85;62.08;;;;;;;;;;5010765;28;20438;-61
2022/03/31 08:38:40;;;;;;;86.37;65.10;;;;;;;;;;5011115;28;20207;-60
2022/03/31 08:41:07;;;;;;;86.50;66.00;;;;;;;;;;5010619;28;20459;-59
2022/03/31 08:43:33;;;;;;;95.25;68.22;;;;;;;;;;5010834;28;20180;-61
2022/03/31 08:45:59;;;;;;;84.22;63.40;;;;;;;;;;5010688;28;20193;-58
2022/03/31 08:48:26;;;;;;;89.30;69.67;;;;;;;;;;5010844;28;20178;-61
2022/03/31 08:50:52;;;;;;;89.47;68.15;;;;;;;;;;5010759;28;20405;-61
2022/03/31 08:53:18;;;;;;;86.63;67.50;;;;;;;;;;5010594;28;20173;-61
2022/03/31 08:55:44;;;;;;;89.40;72.53;;;;;;;;;;5010605;28;20197;-61
2022/03/31 08:58:10;;;;;;;93.83;71.57;;;;;;;;;;5010548;28;20197;-62
2022/03/31 09:00:36;;;;;;;92.03;71.78;;;;;;;;;;5010262;28;20494;-61
2022/03/31 09:03:03;;;;;;;84.88;71.70;;;;;;;;;;5010651;28;20232;-62
2022/03/31 09:05:41;;;;;;;74.57;67.00;;;;;;;;;;5010524;28;20213;-61
2022/03/31 09:08:09;;;;;;;85.38;73.97;;;;;;;;;;5010925;28;20193;-62
2022/03/31 09:10:35;;;;;;;85.88;75.90;;;;;;;;;;5010422;28;20261;-61
2022/03/31 09:13:06;;;;;;;85.03;75.28;;;;;;;;;;5010734;28;20261;-61
2022/03/31 09:15:33;;;;;;;90.60;79.97;;;;;;;;;;5011324;28;20198;-61
2022/03/31 09:17:59;;;;;;;90.65;78.43;;;;;;;;;;5011496;28;20173;-60
2022/03/31 09:20:39;;;;;;;101.38;87.30;;;;;;;;;;5009978;28;20836;-60
2022/03/31 09:23:05;;;;;;;90.20;78.57;;;;;;;;;;5001497;28;20604;-60
2022/03/31 09:25:32;;;;;;;97.05;81.32;;;;;;;;;;5010127;28;20193;-61
2022/03/31 09:28:00;;;;;;;91.93;77.80;;;;;;;;;;5010452;28;20178;-60
2022/03/31 09:30:27;;;;;;;89.43;79.60;;;;;;;;;;5010065;28;20173;-60
2022/03/31 09:32:54;;;;;;;95.75;79.28;;;;;;;;;;5010724;28;20185;-61
2022/03/31 09:35:21;;;;;;;96.80;86.25;;;;;;;;;;5009504;28;20205;-61
2022/03/31 09:37:49;;;;;;;94.55;84.32;;;;;;;;;;5010452;28;20625;-61
2022/03/31 09:40:15;;;;;;;105.95;94.75;;;;;;;;;;5012787;28;20193;-58
2022/03/31 09:42:41;;;;;;;99.57;89.28;;;;;;;;;;5017457;28;20288;-59
2022/03/31 09:45:09;;;;;;;105.57;94.93;;;;;;;;;;5015436;28;20235;-62
2022/03/31 09:47:45;;;;;;;112.18;100.47;;;;;;;;;;5015456;28;20316;-60
2022/03/31 09:50:12;;;;;;;105.35;94.43;;;;;;;;;;5016246;28;20183;-59
2022/03/31 09:52:38;;;;;;;105.63;94.50;;;;;;;;;;5015376;28;20192;-60
2022/03/31 09:55:04;;;;;;;106.70;95.60;;;;;;;;;;5015466;28;20206;-57
2022/03/31 09:57:31;;;;;;;109.55;97.85;;;;;;;;;;5015196;28;20178;-58
2022/03/31 09:59:57;;;;;;;106.35;94.72;;;;;;;;;;5015095;28;20657;-57
2022/03/31 10:02:23;;;;;;;108.32;97.47;;;;;;;;;;5014566;28;20213;-55
2022/03/31 10:04:50;;;;;;;104.15;93.75;;;;;;;;;;5015172;28;20263;-61
2022/03/31 10:07:16;;;;;;;108.25;96.63;;;;;;;;;;5014996;28;20178;-61
2022/03/31 10:09:43;;;;;;;123.50;110.50;;;;;;;;;;5014965;28;20589;-62
2022/03/31 10:12:15;;;;;;;124.07;112.43;;;;;;;;;;5014658;28;20188;-60
2022/03/31 10:15:01;;;;;;;132.32;119.93;;;;;;;;;;5014501;28;20268;-61
2022/03/31 10:17:28;;;;;;;132.75;120.55;;;;;;;;;;5013459;28;20184;-61
2022/03/31 10:19:55;;;;;;;134.45;122.60;;;;;;;;;;5014796;28;20273;-62
2022/03/31 10:25:08;;;;;;;148.35;135.63;;;;;;;;;;4996036;28;20213;-62
2022/03/31 10:27:35;;;;;;;144.90;132.40;;;;;;;;;;4994932;28;20881;-62
2022/03/31 10:30:10;;;;;;;140.75;128.73;;;;;;;;;;4994878;28;20417;-60
2022/03/31 10:32:36;;;;;;;139.80;127.75;;;;;;;;;;4994870;28;20663;-58
2022/03/31 10:35:02;;;;;;;135.27;123.60;;;;;;;;;;4994799;28;20205;-61
2022/03/31 10:37:36;;;;;;;137.55;124.70;;;;;;;;;;4994852;28;20688;-60
2022/03/31 10:40:07;;;;;;;126.68;115.35;;;;;;;;;;4994820;28;20542;-61
2022/03/31 10:42:33;;;;;;;125.97;114.47;;;;;;;;;;4994671;28;20194;-61
2022/03/31 10:45:10;;;;;;;122.37;111.37;;;;;;;;;;4994680;28;20190;-60
2022/03/31 10:47:39;;;;;;;119.68;108.68;;;;;;;;;;4994677;28;20401;-60
2022/03/31 10:50:07;;;;;;;117.70;107.57;;;;;;;;;;4994363;28;20194;-59
2022/03/31 10:52:33;;;;;;;103.45;96.25;;;;;;;;;;4994433;28;20174;-61
2022/03/31 10:55:19;;;;;;;115.27;105.27;;;;;;;;;;4994341;28;20213;-60
2022/03/31 10:57:45;;;;;;;117.75;107.65;;;;;;;;;;4994457;28;20405;-61
2022/03/31 11:00:14;;;;;;;90.60;84.10;;;;;;;;;;4994111;28;20174;-60
2022/03/31 11:02:47;;;;;;;82.35;77.05;;;;;;;;;;4994368;28;20187;-60
2022/03/31 11:05:13;;;;;;;119.20;108.90;;;;;;;;;;4994094;28;20604;-58
2022/03/31 11:07:39;;;;;;;113.90;103.63;;;;;;;;;;4994492;28;20175;-62
2022/03/31 11:10:07;;;;;;;123.95;112.93;;;;;;;;;;4994194;28;20412;-62
2022/03/31 11:12:33;;;;;;;121.82;110.93;;;;;;;;;;4994294;28;20182;-61
2022/03/31 11:15:04;;;;;;;125.70;114.10;;;;;;;;;;4992970;28;20206;-62
2022/03/31 11:17:31;;;;;;;118.35;107.05;;;;;;;;;;4994249;28;20237;-62
2022/03/31 11:19:57;;;;;;;116.85;106.15;;;;;;;;;;4993999;28;20177;-61
2022/03/31 11:22:26;;;;;;;115.72;105.43;;;;;;;;;;4993786;28;20210;-58
2022/03/31 11:24:54;;;;;;;116.70;106.03;;;;;;;;;;4996528;28;20202;-60
2022/03/31 11:27:36;;;;;;;119.13;108.05;;;;;;;;;;4994077;28;20201;-60
2022/03/31 11:30:02;;;;;;;115.60;104.80;;;;;;;;;;4993544;28;20706;-60
2022/03/31 11:32:32;;;;;;;112.82;102.43;;;;;;;;;;4993476;28;20210;-61
2022/03/31 11:34:58;;;;;;;114.82;103.72;;;;;;;;;;4993514;28;20245;-63
2022/03/31 11:37:24;;;;;;;109.85;99.68;;;;;;;;;;4993495;28;20170;-60
2022/03/31 11:39:50;;;;;;;110.00;99.47;;;;;;;;;;4993355;28;20642;-61
2022/03/31 11:42:17;;;;;;;108.40;98.30;;;;;;;;;;4993037;28;20210;-61
2022/03/31 11:44:43;;;;;;;107.68;96.68;;;;;;;;;;4993508;28;20694;-61
2022/03/31 11:47:12;;;;;;;107.90;96.97;;;;;;;;;;4993263;28;20189;-63
2022/03/31 11:49:40;;;;;;;103.47;93.45;;;;;;;;;;4993153;28;20185;-61
2022/03/31 11:52:06;;;;;;;104.47;94.13;;;;;;;;;;4992879;28;20213;-61
2022/03/31 11:54:32;;;;;;;108.72;98.63;;;;;;;;;;4993044;28;20240;-61
2022/03/31 11:57:06;;;;;;;107.95;97.78;;;;;;;;;;4992938;28;20638;-61
2022/03/31 11:59:32;;;;;;;105.43;95.57;;;;;;;;;;4992989;28;20182;-61
2022/03/31 12:01:58;;;;;;;113.43;103.22;;;;;;;;;;4990901;28;20237;-61
2022/03/31 12:04:29;;;;;;;109.10;98.60;;;;;;;;;;4992823;28;20178;-62
2022/03/31 12:06:57;;;;;;;112.18;100.95;;;;;;;;;;4993184;28;20410;-61
2022/03/31 12:09:26;;;;;;;108.57;98.28;;;;;;;;;;4993085;28;20178;-61
2022/03/31 12:11:52;;;;;;;105.63;95.18;;;;;;;;;;4992745;28;20546;-62
2022/03/31 12:14:18;;;;;;;107.80;96.80;;;;;;;;;;4993041;28;20261;-61
2022/03/31 12:16:51;;;;;;;106.50;95.87;;;;;;;;;;4992949;28;20312;-61
2022/03/31 12:19:18;;;;;;;110.10;98.50;;;;;;;;;;4992875;28;20500;-62
2022/03/31 12:21:56;;;;;;;109.25;97.97;;;;;;;;;;4992539;28;20190;-62
2022/03/31 12:24:22;;;;;;;108.18;96.85;;;;;;;;;;4992730;28;20318;-62
2022/03/31 12:26:58;;;;;;;110.07;99.10;;;;;;;;;;4992776;28;20538;-61
2022/03/31 12:29:25;;;;;;;107.07;96.88;;;;;;;;;;4992764;28;20661;-61
2022/03/31 12:32:06;;;;;;;100.95;92.35;;;;;;;;;;4992434;28;20189;-63
2022/03/31 12:34:32;;;;;;;111.30;101.00;;;;;;;;;;4992654;28;20209;-61
2022/03/31 12:36:58;;;;;;;118.55;106.95;;;;;;;;;;4992388;28;20225;-61
2022/03/31 12:39:24;;;;;;;106.78;96.07;;;;;;;;;;4992724;28;20182;-61
2022/03/31 12:41:51;;;;;;;110.70;99.90;;;;;;;;;;4992256;28;20209;-61
2022/03/31 12:44:21;;;;;;;112.15;100.95;;;;;;;;;;4992403;28;20167;-61
2022/03/31 12:46:54;;;;;;;107.47;96.57;;;;;;;;;;4992438;28;20171;-61
2022/03/31 12:49:21;;;;;;;103.55;93.05;;;;;;;;;;4992225;28;20589;-61
2022/03/31 12:51:49;;;;;;;106.50;95.75;;;;;;;;;;4992241;28;20177;-60
2022/03/31 12:54:23;;;;;;;101.88;91.82;;;;;;;;;;4995968;28;20545;-56
2022/03/31 12:56:49;;;;;;;108.38;96.82;;;;;;;;;;5003039;28;20181;-60
2022/03/31 12:59:16;;;;;;;97.97;88.22;;;;;;;;;;5011768;28;20173;-57
2022/03/31 13:01:42;;;;;;;95.18;87.80;;;;;;;;;;5011324;28;20821;-60
2022/03/31 13:04:09;;;;;;;106.43;96.03;;;;;;;;;;5011595;28;20256;-61
2022/03/31 13:06:35;;;;;;;101.50;92.15;;;;;;;;;;5011458;28;20860;-58
2022/03/31 13:09:01;;;;;;;106.78;96.45;;;;;;;;;;5011448;28;20203;-59
2022/03/31 13:11:27;;;;;;;105.70;95.67;;;;;;;;;;5010806;28;20272;-60
2022/03/31 13:13:53;;;;;;;105.77;94.97;;;;;;;;;;5010124;28;20425;-61
2022/03/31 13:16:19;;;;;;;107.00;96.22;;;;;;;;;;5013239;28;20439;-58
2022/03/31 13:18:45;;;;;;;104.87;93.87;;;;;;;;;;5006970;28;20673;-61
2022/03/31 13:21:11;;;;;;;104.97;93.57;;;;;;;;;;5011690;28;20452;-60
2022/03/31 13:23:37;;;;;;;107.30;95.87;;;;;;;;;;5011621;28;20420;-59
2022/03/31 13:26:05;;;;;;;105.85;94.43;;;;;;;;;;5011513;28;20453;-57
2022/03/31 13:28:31;;;;;;;106.63;95.50;;;;;;;;;;5011601;28;20200;-60
2022/03/31 13:30:57;;;;;;;99.75;91.22;;;;;;;;;;5011099;28;20185;-59
2022/03/31 13:33:23;;;;;;;103.27;94.27;;;;;;;;;;5011498;28;20188;-60
2022/03/31 13:35:49;;;;;;;102.68;92.97;;;;;;;;;;5009307;28;20543;-56
2022/03/31 13:38:15;;;;;;;105.57;94.63;;;;;;;;;;5010058;28;20264;-60
2022/03/31 13:40:41;;;;;;;108.80;98.20;;;;;;;;;;5009783;28;20456;-57
2022/03/31 13:43:07;;;;;;;99.05;91.13;;;;;;;;;;5010097;28;20409;-59
2022/03/31 13:45:33;;;;;;;94.38;86.95;;;;;;;;;;5009791;28;20201;-62
2022/03/31 13:47:59;;;;;;;92.97;85.23;;;;;;;;;;5010048;28;20231;-60
2022/03/31 13:50:25;;;;;;;92.70;85.80;;;;;;;;;;5009846;28;20448;-61
2022/03/31 13:53:43;;;;;;;84.77;78.37;;;;;;;;;;5009349;28;20217;-61
2022/03/31 13:55:40;;;;;;;85.28;78.90;;;;;;;;;;5008369;28;20485;-60
2022/03/31 14:01:10;;;;;;;82.97;76.85;;;;;;;;;;5007597;28;20816;-61
2022/03/31 14:03:37;;;;;;;86.38;79.65;;;;;;;;;;5008757;28;20180;-61
2022/03/31 14:06:03;;;;;;;87.90;81.00;;;;;;;;;;5009744;28;20212;-60
2022/03/31 14:08:29;;;;;;;73.03;67.53;;;;;;;;;;5009815;28;20669;-60
2022/03/31 14:10:56;;;;;;;87.30;80.50;;;;;;;;;;5009684;28;20258;-61
2022/03/31 14:13:22;;;;;;;87.00;80.15;;;;;;;;;;5009826;28;20409;-60
2022/03/31 14:15:48;;;;;;;79.70;73.57;;;;;;;;;;5010001;28;20201;-59
2022/03/31 14:18:14;;;;;;;84.23;77.43;;;;;;;;;;5009819;28;20553;-55